Time;durP1;ratioP1;P1;durP2;ratioP2;P2;SDS_P1;SDS_P2;PMS_P1;PMS_P2;Temp;Humidity;BMP_temperature;BMP_pressure;BME280_temperature;BME280_humidity;BME280_pressure;Samples;Min_cycle;Max_cycle;Signal;HPM_P1;HPM_P2
2022/07/12 00:00:01;;;;;;;3.60;3.30;;;16.30;99.90;;;;;;4950606;29;20060;-74
2022/07/12 00:02:27;;;;;;;4.07;3.63;;;16.30;99.90;;;;;;4950067;29;20138;-74
2022/07/12 00:04:52;;;;;;;4.63;4.13;;;16.30;99.90;;;;;;4949133;29;20035;-75
2022/07/12 00:07:18;;;;;;;6.63;3.60;;;16.20;99.90;;;;;;4951465;29;20135;-75
2022/07/12 00:09:44;;;;;;;5.32;4.20;;;16.20;99.90;;;;;;4934910;29;20047;-74
2022/07/12 00:12:10;;;;;;;3.83;3.42;;;16.20;99.90;;;;;;4947080;29;20039;-74
2022/07/12 00:14:36;;;;;;;5.55;3.70;;;16.10;99.90;;;;;;4946404;29;20031;-73
2022/07/12 00:17:04;;;;;;;4.38;3.97;;;16.10;99.90;;;;;;4938347;29;20545;-74
2022/07/12 00:19:29;;;;;;;4.55;3.97;;;16.10;99.90;;;;;;4944938;29;20110;-74
2022/07/12 00:21:55;;;;;;;5.03;4.00;;;16.00;99.90;;;;;;4937036;29;20115;-75
2022/07/12 00:24:20;;;;;;;3.30;3.03;;;16.00;99.90;;;;;;4952702;28;20496;-74
2022/07/12 00:26:46;;;;;;;6.50;3.65;;;15.90;99.90;;;;;;4944842;29;20871;-75
2022/07/12 00:29:12;;;;;;;4.07;3.67;;;15.90;99.90;;;;;;4949642;29;20034;-74
2022/07/12 00:31:38;;;;;;;3.65;3.35;;;;;;;;;;4949480;29;20035;-73
2022/07/12 00:34:03;;;;;;;3.75;3.10;;;15.80;99.90;;;;;;4949306;28;20103;-75
2022/07/12 00:36:29;;;;;;;3.83;3.47;;;15.80;99.90;;;;;;4952538;29;20035;-74
2022/07/12 00:38:56;;;;;;;5.03;3.10;;;15.80;99.90;;;;;;4952692;29;20031;-74
2022/07/12 00:41:22;;;;;;;3.40;3.15;;;15.70;99.90;;;;;;4953286;28;20058;-75
2022/07/12 00:43:47;;;;;;;3.72;3.33;;;15.70;99.90;;;;;;4946617;29;20067;-74
2022/07/12 00:46:16;;;;;;;3.03;2.72;;;15.70;99.90;;;;;;4935196;29;20075;-72
2022/07/12 00:48:41;;;;;;;2.85;2.65;;;15.70;99.90;;;;;;4936311;29;20035;-72
2022/07/12 00:51:07;;;;;;;4.25;3.10;;;15.70;99.90;;;;;;4941447;29;20082;-74
2022/07/12 00:53:33;;;;;;;3.28;2.97;;;15.70;99.90;;;;;;4936858;29;20027;-72
2022/07/12 00:55:59;;;;;;;4.03;2.97;;;15.70;99.90;;;;;;4934603;29;20070;-72
2022/07/12 00:58:25;;;;;;;3.28;2.97;;;15.70;99.90;;;;;;4936770;29;20110;-69
2022/07/12 01:00:51;;;;;;;4.38;3.78;;;15.70;99.90;;;;;;4948577;29;20043;-74
2022/07/12 01:03:18;;;;;;;3.97;3.47;;;15.70;99.90;;;;;;4936713;28;20032;-75
2022/07/12 01:05:45;;;;;;;4.18;2.90;;;15.70;99.90;;;;;;4940162;29;20024;-74
2022/07/12 01:08:12;;;;;;;6.20;3.20;;;15.70;99.90;;;;;;4938004;29;20129;-74
2022/07/12 01:10:39;;;;;;;4.68;3.13;;;15.70;99.90;;;;;;4940456;29;20042;-74
2022/07/12 01:13:05;;;;;;;3.30;3.00;;;15.80;99.90;;;;;;4939193;29;20083;-74
2022/07/12 01:15:31;;;;;;;2.63;2.42;;;15.80;99.90;;;;;;4948882;28;20110;-73
2022/07/12 01:17:58;;;;;;;3.38;3.08;;;15.80;99.90;;;;;;4947800;29;20098;-74
2022/07/12 01:20:23;;;;;;;4.28;3.33;;;15.80;99.90;;;;;;4955835;29;20507;-75
2022/07/12 01:22:59;;;;;;;3.83;3.50;;;15.80;99.90;;;;;;4954748;29;20134;-75
2022/07/12 01:25:25;;;;;;;2.90;2.70;;;15.80;99.90;;;;;;4952959;29;20107;-75
2022/07/12 01:27:51;;;;;;;3.85;3.20;;;15.80;99.90;;;;;;4942014;29;20473;-74
2022/07/12 01:30:17;;;;;;;3.58;3.05;;;15.80;99.90;;;;;;4955084;29;20035;-72
2022/07/12 01:32:43;;;;;;;3.38;3.08;;;15.80;99.90;;;;;;4948607;28;20066;-73
2022/07/12 01:35:09;;;;;;;4.88;2.55;;;15.80;99.90;;;;;;4951798;29;20050;-74
2022/07/12 01:37:37;;;;;;;3.47;3.17;;;15.80;99.90;;;;;;4953656;29;20028;-75
2022/07/12 01:40:05;;;;;;;2.95;2.70;;;15.80;99.90;;;;;;4940742;29;20046;-73
2022/07/12 01:42:31;;;;;;;3.63;2.97;;;15.70;99.90;;;;;;4953180;29;20031;-70
2022/07/12 01:44:57;;;;;;;4.65;2.55;;;15.80;99.90;;;;;;4950358;29;20027;-74
2022/07/12 01:47:25;;;;;;;3.65;2.90;;;15.70;99.90;;;;;;4953373;29;20126;-73
2022/07/12 01:49:51;;;;;;;3.15;2.60;;;15.70;99.90;;;;;;4946682;29;20031;-75
2022/07/12 01:52:17;;;;;;;3.20;2.75;;;15.70;99.90;;;;;;4939800;29;20094;-75
2022/07/12 01:54:43;;;;;;;2.50;2.13;;;15.60;99.90;;;;;;4944359;29;20031;-75
2022/07/12 01:57:09;;;;;;;6.22;2.45;;;15.60;99.90;;;;;;4952735;29;20106;-75
2022/07/12 01:59:35;;;;;;;2.70;2.50;;;15.60;99.90;;;;;;4951242;29;20035;-74
2022/07/12 02:02:01;;;;;;;2.60;2.38;;;15.60;99.90;;;;;;4954179;29;20046;-74
2022/07/12 02:04:27;;;;;;;2.03;1.92;;;15.50;99.90;;;;;;4949016;29;20035;-74
2022/07/12 02:06:53;;;;;;;2.22;2.03;;;;;;;;;;4952007;29;20027;-75
2022/07/12 02:09:19;;;;;;;2.95;2.20;;;;;;;;;;4939752;29;20717;-75
2022/07/12 02:11:48;;;;;;;3.05;2.00;;;;;;;;;;4947461;29;20525;-75
2022/07/12 02:14:14;;;;;;;1.98;1.88;;;;;;;;;;4948994;29;20035;-74
2022/07/12 02:16:41;;;;;;;2.47;2.13;;;;;;;;;;4942393;29;20031;-74
2022/07/12 02:19:08;;;;;;;2.20;2.00;;;;;;;;;;4936548;29;20032;-74
2022/07/12 02:21:34;;;;;;;2.00;1.80;;;;;;;;;;4937510;29;20053;-71
2022/07/12 02:24:00;;;;;;;2.45;2.22;;;;;;;;;;4953984;28;20424;-74
2022/07/12 02:26:26;;;;;;;2.65;1.95;;;;;;;;;;4952231;29;20031;-73
2022/07/12 02:28:52;;;;;;;2.22;1.90;;;;;;;;;;4939205;29;20098;-73
2022/07/12 02:31:18;;;;;;;2.35;2.08;;;;;;;;;;4940939;29;20114;-74
2022/07/12 02:33:44;;;;;;;2.33;1.95;;;;;;;;;;4936078;29;20131;-73
2022/07/12 02:36:10;;;;;;;2.17;1.90;;;;;;;;;;4943840;29;20103;-74
2022/07/12 02:38:36;;;;;;;4.05;1.80;;;;;;;;;;4935514;29;20388;-73
2022/07/12 02:41:02;;;;;;;2.08;1.80;;;;;;;;;;4945109;28;20040;-74
2022/07/12 02:43:32;;;;;;;2.42;1.80;;;;;;;;;;4955035;29;20027;-74
2022/07/12 02:51:52;;;;;;;2.40;1.75;;;;;;;;;;4952857;23;20277;-70
2022/07/12 02:54:18;;;;;;;2.33;1.77;;;;;;;;;;4947408;28;20027;-73
2022/07/12 02:56:44;;;;;;;1.60;1.50;;;;;;;;;;4954403;29;20106;-75
2022/07/12 02:59:10;;;;;;;2.28;1.90;;;;;;;;;;4953524;29;20684;-73
2022/07/12 03:01:36;;;;;;;2.25;1.90;;;;;;;;;;4954433;29;20035;-74
2022/07/12 03:04:02;;;;;;;1.65;1.55;;;;;;;;;;4953921;29;20093;-74
2022/07/12 03:06:28;;;;;;;1.67;1.58;;;;;;;;;;4954619;29;20027;-74
2022/07/12 03:08:54;;;;;;;2.13;1.38;;;;;;;;;;4947937;28;20023;-72
2022/07/12 03:11:20;;;;;;;3.30;1.65;;;;;;;;;;4945816;28;20117;-73
2022/07/12 03:13:45;;;;;;;2.40;1.73;;;15.00;99.90;;;;;;4953293;28;20058;-72
2022/07/12 03:16:11;;;;;;;1.83;1.33;;;;;;;;;;4952920;29;20055;-74
2022/07/12 03:18:39;;;;;;;1.63;1.52;;;;;;;;;;4953586;29;20027;-74
2022/07/12 03:21:05;;;;;;;1.80;1.70;;;14.70;99.90;;;;;;4952525;29;20065;-73
2022/07/12 03:23:30;;;;;;;2.28;1.50;;;14.70;99.90;;;;;;4951713;29;20059;-73
2022/07/12 03:25:56;;;;;;;2.05;1.50;;;14.60;99.90;;;;;;4946508;29;20486;-74
2022/07/12 03:28:22;;;;;;;1.90;1.70;;;14.50;99.90;;;;;;4952425;28;20024;-75
2022/07/12 03:30:47;;;;;;;1.98;1.50;;;14.50;99.90;;;;;;4953476;28;20074;-73
2022/07/12 03:33:13;;;;;;;1.80;1.67;;;14.50;99.90;;;;;;4949293;29;20074;-75
2022/07/12 03:35:39;;;;;;;1.77;1.67;;;14.50;99.90;;;;;;4953795;29;20443;-75
2022/07/12 03:38:04;;;;;;;1.80;1.70;;;14.50;99.90;;;;;;4950224;29;20030;-74
2022/07/12 03:40:32;;;;;;;1.80;1.70;;;14.50;99.90;;;;;;4949105;29;20027;-75
2022/07/12 03:42:58;;;;;;;2.53;2.17;;;14.50;99.90;;;;;;4947958;29;20114;-73
2022/07/12 03:45:24;;;;;;;2.38;2.10;;;14.40;99.90;;;;;;4952570;29;20030;-74
2022/07/12 03:47:50;;;;;;;3.20;2.05;;;14.40;99.90;;;;;;4949764;29;20031;-73
2022/07/12 03:50:15;;;;;;;2.10;1.98;;;14.50;99.90;;;;;;4947732;28;20059;-74
2022/07/12 03:52:42;;;;;;;4.28;2.22;;;14.50;99.90;;;;;;4950641;29;20110;-74
2022/07/12 03:55:12;;;;;;;2.30;2.10;;;14.50;99.90;;;;;;4944005;29;20043;-73
2022/07/12 03:57:38;;;;;;;;;;;14.50;99.90;;;;;;4950293;29;20039;-74
2022/07/12 04:00:08;;;;;;;2.13;1.95;;;14.50;99.90;;;;;;4943132;29;19933;-73
2022/07/12 04:02:34;;;;;;;2.17;1.98;;;14.50;99.90;;;;;;4949687;29;20083;-74
2022/07/12 04:04:59;;;;;;;4.22;2.85;;;14.50;99.90;;;;;;4951589;29;20039;-74
2022/07/12 04:07:25;;;;;;;3.53;2.72;;;14.50;99.90;;;;;;4953700;29;20543;-74
2022/07/12 04:09:50;;;;;;;3.55;2.60;;;14.50;99.90;;;;;;4952751;29;20035;-72
2022/07/12 04:12:16;;;;;;;2.60;2.40;;;14.50;99.90;;;;;;4948235;29;20046;-74
2022/07/12 04:14:41;;;;;;;3.67;2.88;;;14.50;99.90;;;;;;4952940;29;20460;-74
2022/07/12 04:17:07;;;;;;;4.22;3.17;;;14.50;99.90;;;;;;4949772;29;20032;-73
2022/07/12 04:19:33;;;;;;;3.50;3.20;;;14.60;99.90;;;;;;4950086;29;20083;-75
2022/07/12 04:21:59;;;;;;;3.72;3.38;;;14.70;99.90;;;;;;4951866;29;20134;-74
2022/07/12 04:24:26;;;;;;;3.47;3.17;;;14.70;99.90;;;;;;4948786;29;20031;-74
2022/07/12 04:26:51;;;;;;;6.53;3.80;;;14.80;99.90;;;;;;4953306;29;20039;-73
2022/07/12 04:29:18;;;;;;;6.45;4.03;;;14.80;99.90;;;;;;4952748;29;20035;-74
2022/07/12 04:31:44;;;;;;;5.93;4.28;;;14.90;99.90;;;;;;4952437;29;20055;-73
2022/07/12 04:34:09;;;;;;;6.68;4.80;;;15.00;99.90;;;;;;4945627;29;20460;-73
2022/07/12 04:36:35;;;;;;;7.72;4.63;;;15.00;99.90;;;;;;4951271;28;20031;-74
2022/07/12 04:39:01;;;;;;;5.80;4.20;;;15.00;99.90;;;;;;4956280;29;20042;-72
2022/07/12 04:41:27;;;;;;;4.40;3.72;;;15.10;99.90;;;;;;4951631;29;20035;-74
2022/07/12 04:43:53;;;;;;;5.95;4.40;;;15.10;99.90;;;;;;4955533;29;20027;-74
2022/07/12 04:46:18;;;;;;;5.07;4.28;;;15.10;99.90;;;;;;4956397;29;20058;-73
2022/07/12 04:48:44;;;;;;;6.03;4.60;;;15.10;99.90;;;;;;4957245;29;20040;-74
2022/07/12 04:51:10;;;;;;;5.82;5.13;;;15.20;99.90;;;;;;4954245;28;20062;-74
2022/07/12 04:53:35;;;;;;;6.63;4.45;;;15.30;99.90;;;;;;4956084;29;20027;-74
2022/07/12 04:56:01;;;;;;;6.38;4.38;;;15.40;99.90;;;;;;4955855;29;20126;-73
2022/07/12 04:58:27;;;;;;;7.15;5.18;;;15.40;99.90;;;;;;4956792;29;20166;-76
2022/07/12 05:00:53;;;;;;;6.05;4.93;;;15.50;99.90;;;;;;4955483;29;20038;-74
2022/07/12 05:03:19;;;;;;;5.32;4.47;;;15.70;99.90;;;;;;4955747;29;20581;-72
2022/07/12 05:05:44;;;;;;;10.05;4.60;;;15.70;99.90;;;;;;4953591;29;20027;-74
2022/07/12 05:08:10;;;;;;;7.97;5.35;;;15.80;99.90;;;;;;4955977;29;20031;-74
2022/07/12 05:10:35;;;;;;;9.18;5.38;;;15.90;99.90;;;;;;4954706;29;20190;-74
2022/07/12 05:13:01;;;;;;;9.98;5.88;;;16.00;99.90;;;;;;4951376;29;20031;-74
2022/07/12 05:15:27;;;;;;;8.10;4.93;;;16.20;99.90;;;;;;4954441;29;20032;-75
2022/07/12 05:17:52;;;;;;;8.05;5.90;;;16.30;99.90;;;;;;4956456;29;20034;-75
2022/07/12 05:20:19;;;;;;;12.38;6.65;;;16.30;99.90;;;;;;4955640;29;20093;-75
2022/07/12 05:22:44;;;;;;;11.82;6.82;;;16.40;99.90;;;;;;4955328;29;20122;-74
2022/07/12 05:25:10;;;;;;;13.32;7.50;;;16.50;99.90;;;;;;4955699;29;20471;-73
2022/07/12 05:27:36;;;;;;;8.20;5.35;;;16.50;99.90;;;;;;4951033;29;20468;-74
2022/07/12 05:30:03;;;;;;;12.95;6.47;;;16.50;99.90;;;;;;4953037;29;20030;-74
2022/07/12 05:32:28;;;;;;;11.02;6.15;;;16.60;99.90;;;;;;4953241;29;20046;-75
2022/07/12 05:34:54;;;;;;;8.93;6.18;;;16.70;99.90;;;;;;4953040;29;20027;-74
2022/07/12 05:37:20;;;;;;;10.32;6.53;;;16.80;99.90;;;;;;4956482;29;20027;-76
2022/07/12 05:39:45;;;;;;;10.95;5.95;;;16.90;99.90;;;;;;4957131;29;20428;-77
2022/07/12 05:42:11;;;;;;;8.15;5.95;;;17.00;99.90;;;;;;4955457;29;20039;-81
2022/07/12 05:44:37;;;;;;;8.63;5.80;;;17.10;99.90;;;;;;4953073;29;20035;-75
2022/07/12 05:47:03;;;;;;;8.07;5.47;;;17.20;99.90;;;;;;4950204;29;20032;-76
2022/07/12 05:49:28;;;;;;;8.15;6.10;;;17.20;99.90;;;;;;4955630;28;20024;-75
2022/07/12 05:54:38;;;;;;;8.30;6.65;;;17.50;99.90;;;;;;4955895;29;20043;-73
2022/07/12 05:57:04;;;;;;;11.52;6.68;;;17.50;99.90;;;;;;4954910;29;20027;-76
2022/07/12 05:59:31;;;;;;;9.77;6.18;;;17.60;99.90;;;;;;4952621;29;20034;-72
2022/07/12 06:01:56;;;;;;;8.70;6.05;;;17.70;99.90;;;;;;4949014;29;20174;-73
2022/07/12 06:04:22;;;;;;;7.15;5.57;;;17.80;99.90;;;;;;4953120;28;20155;-72
2022/07/12 06:06:48;;;;;;;7.15;4.50;;;17.90;99.90;;;;;;4955106;29;20388;-72
2022/07/12 06:09:13;;;;;;;7.93;4.55;;;18.00;99.90;;;;;;4950241;29;20468;-71
2022/07/12 06:11:39;;;;;;;12.35;5.07;;;18.00;99.90;;;;;;4952584;29;20075;-72
2022/07/12 06:14:04;;;;;;;6.97;4.40;;;18.10;99.90;;;;;;4952949;29;20138;-71
2022/07/12 06:16:30;;;;;;;6.53;4.22;;;18.20;99.90;;;;;;4952721;29;20498;-72
2022/07/12 06:18:55;;;;;;;8.73;5.05;;;18.20;99.90;;;;;;4952712;29;20035;-73
2022/07/12 06:21:21;;;;;;;10.20;5.45;;;18.40;99.90;;;;;;4953616;29;20447;-73
2022/07/12 06:23:47;;;;;;;6.40;5.50;;;18.50;99.90;;;;;;4949492;29;20027;-72
2022/07/12 06:26:12;;;;;;;6.68;5.18;;;18.60;99.90;;;;;;4947729;28;20034;-73
2022/07/12 06:28:38;;;;;;;8.10;4.03;;;18.60;99.90;;;;;;4951268;28;20102;-73
2022/07/12 06:31:04;;;;;;;13.27;4.97;;;18.70;99.90;;;;;;4953849;29;20079;-71
2022/07/12 06:33:29;;;;;;;10.30;4.50;;;18.80;99.90;;;;;;4948360;28;20031;-72
2022/07/12 06:35:55;;;;;;;6.03;3.50;;;18.90;99.90;;;;;;4949569;29;20034;-73
2022/07/12 06:38:21;;;;;;;10.23;4.10;;;18.90;99.90;;;;;;4951347;29;20053;-73
2022/07/12 06:40:46;;;;;;;5.45;3.60;;;19.00;99.90;;;;;;4948444;28;20032;-73
2022/07/12 06:43:13;;;;;;;3.42;2.83;;;19.10;99.90;;;;;;4952773;29;20441;-73
2022/07/12 06:45:39;;;;;;;4.15;2.28;;;19.20;99.90;;;;;;4954164;29;20046;-73
2022/07/12 06:48:05;;;;;;;4.72;2.88;;;19.30;99.90;;;;;;4953112;28;20110;-73
2022/07/12 06:50:31;;;;;;;3.67;2.88;;;19.30;99.90;;;;;;4953145;28;20047;-71
2022/07/12 06:52:57;;;;;;;2.83;2.10;;;19.40;99.90;;;;;;4935514;29;20027;-73
2022/07/12 06:55:23;;;;;;;4.30;2.85;;;19.40;99.90;;;;;;4949126;29;20035;-73
2022/07/12 06:57:49;;;;;;;5.22;3.10;;;19.50;99.90;;;;;;4944700;29;20090;-73
2022/07/12 07:00:15;;;;;;;7.38;2.67;;;19.80;99.90;;;;;;4948435;28;20550;-72
2022/07/12 07:02:41;;;;;;;5.30;2.88;;;19.80;99.90;;;;;;4955781;28;20031;-72
2022/07/12 07:05:07;;;;;;;5.15;3.08;;;20.00;99.90;;;;;;4945558;28;20162;-72
2022/07/12 07:07:33;;;;;;;5.25;2.65;;;20.10;99.90;;;;;;4945217;29;20039;-72
2022/07/12 07:09:59;;;;;;;6.97;2.20;;;20.20;99.90;;;;;;4953996;29;20038;-72
2022/07/12 07:12:25;;;;;;;9.98;3.20;;;20.20;99.90;;;;;;4949605;29;20090;-72
2022/07/12 07:14:50;;;;;;;5.50;2.70;;;20.20;99.90;;;;;;4945404;29;20028;-71
2022/07/12 07:17:17;;;;;;;3.90;2.20;;;20.20;99.90;;;;;;4947388;29;20063;-73
2022/07/12 07:19:44;;;;;;;4.10;2.15;;;20.30;99.90;;;;;;4952912;29;20035;-73
2022/07/12 07:22:10;;;;;;;3.50;1.63;;;20.60;99.90;;;;;;4948587;29;20039;-72
2022/07/12 07:24:36;;;;;;;4.18;2.03;;;20.70;99.90;;;;;;4944211;29;20073;-72
2022/07/12 07:27:02;;;;;;;1.65;1.50;;;20.90;99.90;;;;;;4953275;29;20419;-72
2022/07/12 07:32:11;;;;;;;1.55;1.45;;;21.20;99.20;;;;;;4944408;29;20046;-72
2022/07/12 07:34:37;;;;;;;5.35;1.70;;;21.40;98.70;;;;;;4946418;29;20027;-72
2022/07/12 07:37:03;;;;;;;2.50;1.27;;;21.40;98.20;;;;;;4953246;29;20031;-71
2022/07/12 07:39:29;;;;;;;1.52;1.00;;;21.30;98.30;;;;;;4947560;29;20534;-72
2022/07/12 07:41:55;;;;;;;3.22;1.30;;;21.40;97.90;;;;;;4953622;29;20035;-72
2022/07/12 07:44:20;;;;;;;1.63;0.60;;;21.50;97.40;;;;;;4950316;29;20063;-72
2022/07/12 07:46:46;;;;;;;1.30;0.68;;;21.50;97.00;;;;;;4953038;28;20078;-73
2022/07/12 07:49:11;;;;;;;2.10;1.00;;;21.50;96.80;;;;;;4947764;29;20074;-72
2022/07/12 07:51:37;;;;;;;2.67;0.95;;;21.60;97.20;;;;;;4950173;28;20043;-72
2022/07/12 07:54:03;;;;;;;4.70;1.10;;;21.60;97.20;;;;;;4944961;29;20448;-71
2022/07/12 07:56:29;;;;;;;1.42;1.00;;;21.80;97.10;;;;;;4940803;29;20467;-72
2022/07/12 07:58:55;;;;;;;0.88;0.80;;;21.80;96.70;;;;;;4952039;29;20031;-74
2022/07/12 08:01:41;;;;;;;1.25;0.80;;;21.70;96.20;;;;;;4952383;29;20038;-79
2022/07/12 08:04:06;;;;;;;7.32;1.65;;;21.70;95.90;;;;;;4947321;29;20038;-81
2022/07/12 08:06:32;;;;;;;3.83;0.98;;;21.60;96.20;;;;;;4941213;29;20028;-80
2022/07/12 08:08:58;;;;;;;3.97;1.98;;;21.60;96.50;;;;;;4948274;29;20074;-77
2022/07/12 08:11:23;;;;;;;3.85;0.88;;;21.70;96.70;;;;;;4950036;28;20037;-76
2022/07/12 08:13:49;;;;;;;1.15;0.80;;;21.70;96.70;;;;;;4950814;29;20031;-76
2022/07/12 08:16:14;;;;;;;1.20;0.70;;;21.80;96.80;;;;;;4943804;29;20090;-77
2022/07/12 08:18:40;;;;;;;0.60;0.60;;;22.00;95.40;;;;;;4947278;29;20090;-78
2022/07/12 08:21:06;;;;;;;1.80;0.98;;;22.10;95.40;;;;;;4951906;28;20037;-74
2022/07/12 08:23:32;;;;;;;1.95;0.60;;;22.10;95.00;;;;;;4944718;29;20027;-77
2022/07/12 08:25:57;;;;;;;1.48;0.70;;;22.10;95.20;;;;;;4951634;29;20030;-76
2022/07/12 08:28:23;;;;;;;0.70;0.70;;;22.30;95.10;;;;;;4950703;29;20036;-78
2022/07/12 08:30:49;;;;;;;2.28;0.80;;;22.40;94.80;;;;;;4950080;29;20114;-76
2022/07/12 08:33:14;;;;;;;6.03;0.60;;;22.40;94.50;;;;;;4944313;29;20051;-75
2022/07/12 08:35:41;;;;;;;1.58;0.80;;;22.50;93.20;;;;;;4952410;29;20036;-75
2022/07/12 08:38:06;;;;;;;4.57;1.58;;;22.50;92.00;;;;;;4949364;29;20071;-74
2022/07/12 08:40:32;;;;;;;5.78;0.50;;;22.50;92.90;;;;;;4947442;29;20070;-77
2022/07/12 08:42:59;;;;;;;0.80;0.30;;;22.50;92.50;;;;;;4950025;28;20452;-77
2022/07/12 08:45:25;;;;;;;1.17;0.63;;;22.50;92.20;;;;;;4951888;29;20055;-76
2022/07/12 08:47:51;;;;;;;3.90;0.50;;;22.60;91.70;;;;;;4951742;29;20059;-74
2022/07/12 08:50:18;;;;;;;1.30;0.90;;;22.80;91.30;;;;;;4947411;29;20413;-76
2022/07/12 08:52:45;;;;;;;1.45;1.00;;;22.90;91.00;;;;;;4944968;28;20033;-76
2022/07/12 08:55:19;;;;;;;1.13;0.55;;;22.90;91.40;;;;;;4950676;29;20416;-76
2022/07/12 08:57:45;;;;;;;1.95;0.70;;;22.90;91.40;;;;;;4941343;29;20023;-75
2022/07/12 09:00:12;;;;;;;3.40;0.80;;;23.00;91.50;;;;;;4944494;29;20039;-74
2022/07/12 09:02:48;;;;;;;2.67;1.08;;;23.10;91.40;;;;;;4951311;28;20035;-75
2022/07/12 09:05:16;;;;;;;3.38;0.60;;;23.20;91.10;;;;;;4945200;29;20413;-75
2022/07/12 09:07:41;;;;;;;0.60;0.60;;;23.30;90.70;;;;;;4948001;29;20420;-76
2022/07/12 09:10:09;;;;;;;3.00;0.82;;;23.30;90.70;;;;;;4947833;29;20031;-73
2022/07/12 09:12:37;;;;;;;0.93;0.60;;;23.40;90.80;;;;;;4952193;29;20047;-75
2022/07/12 09:15:19;;;;;;;1.52;1.00;;;23.40;90.10;;;;;;4948672;29;20023;-77
2022/07/12 09:18:03;;;;;;;1.02;0.80;;;23.50;90.20;;;;;;4948428;29;20031;-77
2022/07/12 09:20:36;;;;;;;1.75;0.70;;;23.70;90.40;;;;;;4947580;28;20033;-76
2022/07/12 09:23:07;;;;;;;2.08;0.93;;;23.80;89.20;;;;;;4952524;28;20042;-75
2022/07/12 09:25:33;;;;;;;0.50;0.50;;;24.00;88.60;;;;;;4946875;29;20034;-77
2022/07/12 09:28:02;;;;;;;11.27;1.17;;;24.10;88.20;;;;;;4954194;29;20030;-76
2022/07/12 09:30:29;;;;;;;0.95;0.57;;;24.00;87.90;;;;;;4943034;29;20038;-76
2022/07/12 09:36:07;;;;;;;1.85;0.60;;;23.70;88.80;;;;;;4954842;29;20135;-75
2022/07/12 09:38:50;;;;;;;0.80;0.47;;;23.90;86.70;;;;;;4948016;29;20036;-75
2022/07/12 09:41:18;;;;;;;1.33;0.50;;;24.10;86.10;;;;;;4950260;28;20054;-75
2022/07/12 09:43:44;;;;;;;6.03;0.70;;;24.10;86.80;;;;;;4948826;29;20408;-77
2022/07/12 09:46:10;;;;;;;1.80;0.50;;;24.10;85.60;;;;;;4950200;29;20035;-73
2022/07/12 09:48:37;;;;;;;6.63;1.10;;;23.90;84.90;;;;;;4950803;29;20384;-75
2022/07/12 09:51:04;;;;;;;2.90;0.80;;;23.90;85.20;;;;;;4950126;28;20114;-76
2022/07/12 09:53:38;;;;;;;10.23;1.02;;;24.00;85.80;;;;;;4949769;29;20472;-76
2022/07/12 09:56:10;;;;;;;1.58;0.85;;;24.20;85.00;;;;;;4951427;28;20031;-75
2022/07/12 09:58:46;;;;;;;0.40;0.40;;;24.50;84.40;;;;;;4954824;29;20027;-76
2022/07/12 10:01:13;;;;;;;1.70;0.70;;;24.80;85.00;;;;;;4952665;29;20038;-76
2022/07/12 10:03:40;;;;;;;12.68;0.90;;;25.00;82.80;;;;;;4953939;29;20023;-76
2022/07/12 10:06:07;;;;;;;3.17;0.55;;;24.90;83.10;;;;;;4943095;29;20064;-74
2022/07/12 10:08:32;;;;;;;1.73;0.60;;;24.70;84.70;;;;;;4945371;29;20115;-76
2022/07/12 10:10:59;;;;;;;2.50;0.73;;;24.40;83.20;;;;;;4953870;29;20130;-76
2022/07/12 10:13:25;;;;;;;6.72;0.85;;;24.20;84.00;;;;;;4952719;29;20042;-76
2022/07/12 10:15:52;;;;;;;0.47;0.47;;;23.90;83.80;;;;;;4953375;29;20031;-76
2022/07/12 10:18:21;;;;;;;1.92;0.43;;;23.90;84.20;;;;;;4948315;29;20035;-75
2022/07/12 10:20:48;;;;;;;3.92;0.80;;;24.00;83.20;;;;;;4952760;28;20059;-75
2022/07/12 10:23:20;;;;;;;8.45;1.55;;;24.20;83.20;;;;;;4953311;29;20042;-75
2022/07/12 10:25:49;;;;;;;1.15;0.40;;;24.40;83.20;;;;;;4934054;29;20114;-77
2022/07/12 10:28:15;;;;;;;0.67;0.40;;;24.70;82.30;;;;;;4949952;28;20042;-77
2022/07/12 10:30:47;;;;;;;2.15;0.50;;;24.60;81.30;;;;;;4956477;29;20039;-75
2022/07/12 10:33:21;;;;;;;1.88;0.40;;;24.60;81.50;;;;;;4942563;28;20222;-74
2022/07/12 10:36:01;;;;;;;0.38;0.38;;;24.80;81.30;;;;;;4952134;28;20038;-76
2022/07/12 10:38:27;;;;;;;1.85;0.35;;;25.00;80.80;;;;;;4944762;28;20034;-81
2022/07/12 10:40:53;;;;;;;4.50;0.95;;;25.20;80.00;;;;;;4947289;29;20090;-69
2022/07/12 10:46:18;;;;;;;2.10;0.40;;;25.40;79.80;;;;;;4946992;28;20066;-73
2022/07/12 10:48:44;;;;;;;2.13;0.85;;;25.60;78.90;;;;;;4951563;28;20059;-77
2022/07/12 10:51:15;;;;;;;5.15;1.00;;;25.60;78.60;;;;;;4956135;28;20087;-75
2022/07/12 10:53:42;;;;;;;1.20;0.30;;;25.70;78.50;;;;;;4946718;28;20038;-79
2022/07/12 10:56:11;;;;;;;1.73;0.50;;;25.80;77.90;;;;;;4944242;28;20461;-76
2022/07/12 10:58:41;;;;;;;2.05;0.60;;;25.90;77.50;;;;;;4951120;28;20053;-73
2022/07/12 11:01:08;;;;;;;;;;;26.00;77.50;;;;;;4951307;28;20038;-75
2022/07/12 11:03:53;;;;;;;2.45;0.55;;;26.10;76.30;;;;;;4949889;28;19917;-73
2022/07/12 11:06:24;;;;;;;1.10;0.60;;;25.90;76.90;;;;;;4951964;28;20037;-76
2022/07/12 11:09:00;;;;;;;1.70;0.40;;;25.90;77.90;;;;;;4951536;28;20114;-75
2022/07/12 11:11:29;;;;;;;0.50;0.50;;;25.80;76.60;;;;;;4951745;29;20063;-77
2022/07/12 11:13:56;;;;;;;2.30;0.52;;;25.70;76.50;;;;;;4947627;28;20075;-76
2022/07/12 11:16:23;;;;;;;1.95;0.40;;;25.80;76.70;;;;;;4950237;29;20037;-76
2022/07/12 11:18:49;;;;;;;3.10;0.47;;;25.90;76.50;;;;;;4950962;28;20079;-72
2022/07/12 11:21:15;;;;;;;0.52;0.30;;;25.90;76.30;;;;;;4952294;28;20492;-69
2022/07/12 11:23:42;;;;;;;1.58;0.40;;;25.90;75.80;;;;;;4950695;28;20058;-74
2022/07/12 11:26:08;;;;;;;0.50;0.50;;;25.90;76.20;;;;;;4953423;29;20082;-72
2022/07/12 11:28:34;;;;;;;7.90;0.95;;;25.90;76.00;;;;;;4942520;28;20027;-73
2022/07/12 11:31:14;;;;;;;0.85;0.38;;;25.90;76.00;;;;;;4948092;28;20035;-75
2022/07/12 11:33:41;;;;;;;;;;;26.00;76.20;;;;;;4942513;28;20055;-70
2022/07/12 11:36:08;;;;;;;3.63;0.50;;;26.10;76.50;;;;;;4952511;28;19910;-72
2022/07/12 11:38:35;;;;;;;1.30;0.60;;;26.00;74.30;;;;;;4951404;28;20089;-72
2022/07/12 11:41:03;;;;;;;2.33;0.50;;;26.00;74.60;;;;;;4943047;28;20082;-74
2022/07/12 11:43:30;;;;;;;0.55;0.50;;;26.10;75.00;;;;;;4943614;28;20061;-74
2022/07/12 11:45:56;;;;;;;1.83;0.43;;;26.10;74.50;;;;;;4943610;29;20028;-74
2022/07/12 11:48:23;;;;;;;1.00;0.50;;;26.10;74.40;;;;;;4946040;28;20035;-73
2022/07/12 11:50:53;;;;;;;4.85;0.60;;;26.30;74.00;;;;;;4937520;28;20638;-73
2022/07/12 11:53:23;;;;;;;0.40;0.40;;;26.60;74.60;;;;;;4944168;28;20408;-71
2022/07/12 11:55:51;;;;;;;0.40;0.40;;;26.70;73.10;;;;;;4940935;28;20464;-73
2022/07/12 11:58:18;;;;;;;0.73;0.35;;;26.90;72.90;;;;;;4946978;28;20082;-71
2022/07/12 12:00:44;;;;;;;3.15;0.60;;;27.00;72.80;;;;;;4942838;28;20039;-72
2022/07/12 12:03:10;;;;;;;3.10;0.68;;;27.10;72.90;;;;;;4943228;28;20098;-73
2022/07/12 12:05:37;;;;;;;2.60;0.45;;;27.20;72.50;;;;;;4943784;29;20796;-73
2022/07/12 12:08:04;;;;;;;2.03;0.50;;;27.10;72.10;;;;;;4947591;28;20037;-72
2022/07/12 12:10:30;;;;;;;0.45;0.30;;;27.10;71.60;;;;;;4947188;28;20023;-72
2022/07/12 12:12:58;;;;;;;1.17;0.30;;;27.20;71.30;;;;;;4945783;28;20023;-76
2022/07/12 12:15:31;;;;;;;3.63;0.30;;;27.30;69.20;;;;;;4953202;28;20035;-75
2022/07/12 12:17:58;;;;;;;1.83;0.40;;;27.30;69.50;;;;;;4945929;29;20055;-75
2022/07/12 12:20:29;;;;;;;0.30;0.30;;;27.40;69.70;;;;;;4946493;29;20070;-76
2022/07/12 12:22:56;;;;;;;0.43;0.43;;;27.40;69.00;;;;;;4947771;29;20051;-76
2022/07/12 12:25:23;;;;;;;0.57;0.40;;;27.50;68.80;;;;;;4952255;29;20031;-76
2022/07/12 12:27:54;;;;;;;0.30;0.20;;;27.50;68.50;;;;;;4948114;29;20032;-75
2022/07/12 12:30:20;;;;;;;2.50;0.55;;;27.60;68.40;;;;;;4948123;29;20039;-75
2022/07/12 12:32:50;;;;;;;1.17;0.43;;;27.80;68.20;;;;;;4942573;29;20033;-76
2022/07/12 12:35:18;;;;;;;1.00;0.40;;;28.00;68.00;;;;;;4939789;29;20520;-70
2022/07/12 12:37:51;;;;;;;1.67;0.40;;;28.10;68.20;;;;;;4940940;29;20523;-74
2022/07/12 12:40:21;;;;;;;1.45;0.40;;;28.20;68.00;;;;;;4947272;29;20031;-70
2022/07/12 12:42:47;;;;;;;;;;;28.50;66.80;;;;;;4949853;29;20039;-74
2022/07/12 12:45:24;;;;;;;1.20;0.38;;;28.50;66.80;;;;;;4945047;29;19969;-75
2022/07/12 12:48:01;;;;;;;2.40;0.40;;;28.50;66.20;;;;;;4950107;28;20038;-74
2022/07/12 12:50:45;;;;;;;0.40;0.40;;;28.60;66.30;;;;;;4949199;28;20105;-74
2022/07/12 12:53:21;;;;;;;0.38;0.38;;;28.70;66.50;;;;;;4951823;29;20388;-75
2022/07/12 12:55:49;;;;;;;2.17;0.50;;;28.70;66.70;;;;;;4946421;29;20023;-75
2022/07/12 12:58:16;;;;;;;2.38;0.45;;;28.80;66.50;;;;;;4947772;29;20027;-71
2022/07/12 13:00:43;;;;;;;1.95;0.30;;;28.80;65.50;;;;;;4953427;29;20126;-74
2022/07/12 13:03:11;;;;;;;0.88;0.40;;;28.80;65.50;;;;;;4952873;29;20082;-76
2022/07/12 13:05:37;;;;;;;1.45;0.50;;;28.70;65.60;;;;;;4955527;28;20032;-75
2022/07/12 13:08:04;;;;;;;1.23;0.40;;;28.60;65.70;;;;;;4953899;29;20031;-74
2022/07/12 13:10:30;;;;;;;1.08;0.40;;;28.50;65.50;;;;;;4952200;29;20032;-74